Time;durP1;ratioP1;P1;durP2;ratioP2;P2;SDS_P1;SDS_P2;PMS_P1;PMS_P2;Temp;Humidity;BMP_temperature;BMP_pressure;BME280_temperature;BME280_humidity;BME280_pressure;Samples;Min_cycle;Max_cycle;Signal;HPM_P1;HPM_P2
2022/03/30 00:01:48;;;;;;;2.90;2.10;;;-3.80;99.90;;;;;;5004497;28;20157;-65
2022/03/30 00:04:16;;;;;;;5.23;2.23;;;-3.80;99.90;;;;;;4999580;28;20133;-63
2022/03/30 00:06:43;;;;;;;5.25;1.85;;;-3.90;99.90;;;;;;5011928;28;20049;-63
2022/03/30 00:09:10;;;;;;;2.67;2.28;;;-3.90;99.90;;;;;;5001823;28;20135;-65
2022/03/30 00:11:37;;;;;;;4.45;4.05;;;-3.90;99.90;;;;;;5005068;28;20141;-64
2022/03/30 00:14:05;;;;;;;4.78;3.17;;;-4.00;99.90;;;;;;4989842;28;20523;-64
2022/03/30 00:16:34;;;;;;;4.07;2.97;;;-4.00;99.90;;;;;;4999300;28;20063;-63
2022/03/30 00:19:03;;;;;;;3.28;2.97;;;-4.00;99.90;;;;;;4994981;28;20054;-63
2022/03/30 00:21:30;;;;;;;5.80;2.55;;;-4.00;99.90;;;;;;4996475;28;20160;-65
2022/03/30 00:23:57;;;;;;;2.40;2.20;;;-4.00;99.90;;;;;;5003331;28;20359;-63
2022/03/30 00:26:24;;;;;;;3.50;2.92;;;-4.00;99.90;;;;;;5002959;28;20169;-65
2022/03/30 00:28:52;;;;;;;4.50;2.67;;;-4.00;99.90;;;;;;5002733;28;20096;-63
2022/03/30 00:31:19;;;;;;;4.30;2.40;;;-4.00;99.90;;;;;;5003409;28;20066;-62
2022/03/30 00:33:46;;;;;;;3.60;2.60;;;-4.00;99.90;;;;;;5003687;28;20564;-63
2022/03/30 00:36:13;;;;;;;5.80;2.90;;;-4.10;99.90;;;;;;4994547;28;20053;-64
2022/03/30 00:38:40;;;;;;;4.10;2.60;;;-4.00;99.90;;;;;;4996676;28;20058;-63
2022/03/30 00:41:07;;;;;;;5.00;2.50;;;-4.00;99.90;;;;;;5005360;28;20058;-64
2022/03/30 00:43:34;;;;;;;7.80;4.05;;;-4.00;99.90;;;;;;4996044;28;20196;-63
2022/03/30 00:46:01;;;;;;;3.05;2.05;;;-4.00;99.90;;;;;;5000269;28;20144;-62
2022/03/30 00:48:28;;;;;;;2.70;2.13;;;-4.00;99.90;;;;;;4987829;28;20482;-63
2022/03/30 00:50:55;;;;;;;2.10;1.70;;;-4.00;99.90;;;;;;5002130;28;20078;-65
2022/03/30 00:53:22;;;;;;;5.47;3.53;;;-4.00;99.90;;;;;;4993956;28;20057;-63
2022/03/30 00:55:52;;;;;;;4.30;2.30;;;-4.00;99.90;;;;;;5002093;28;20050;-63
2022/03/30 00:58:22;;;;;;;3.83;1.75;;;-4.00;99.90;;;;;;4995294;28;20045;-63
2022/03/30 01:00:49;;;;;;;9.13;2.13;;;-4.00;99.90;;;;;;4999458;28;20201;-65
2022/03/30 01:03:16;;;;;;;4.57;1.88;;;-4.10;99.90;;;;;;5002702;28;20232;-65
2022/03/30 01:05:43;;;;;;;2.93;1.77;;;-4.10;99.90;;;;;;5001946;28;20056;-66
2022/03/30 01:08:11;;;;;;;2.40;1.80;;;-4.10;99.90;;;;;;5007243;28;20157;-65
2022/03/30 01:10:38;;;;;;;5.32;2.17;;;-4.10;99.90;;;;;;4998598;28;20042;-63
2022/03/30 01:13:07;;;;;;;4.83;1.60;;;-4.10;99.90;;;;;;4999544;28;20046;-66
2022/03/30 01:15:36;;;;;;;2.13;2.00;;;-4.10;99.90;;;;;;4992125;28;20047;-63
2022/03/30 01:18:03;;;;;;;1.63;1.37;;;-4.20;99.90;;;;;;4994816;28;20189;-63
2022/03/30 01:20:30;;;;;;;2.93;1.80;;;-4.20;99.90;;;;;;4997168;28;20104;-66
2022/03/30 01:23:02;;;;;;;1.42;1.30;;;-4.20;99.90;;;;;;5003252;28;20040;-62
2022/03/30 01:25:29;;;;;;;;;;;-4.20;99.90;;;;;;5006249;28;20041;-64
2022/03/30 01:27:57;;;;;;;2.17;1.73;;;-4.10;99.90;;;;;;5005000;28;20024;-64
2022/03/30 01:33:09;;;;;;;4.23;2.23;;;-4.20;99.90;;;;;;5001154;28;20104;-65
2022/03/30 01:35:37;;;;;;;2.20;1.80;;;-4.20;99.90;;;;;;5005714;28;20050;-64
2022/03/30 01:38:04;;;;;;;2.10;1.83;;;-4.30;99.90;;;;;;5003030;28;20100;-64
2022/03/30 01:40:31;;;;;;;4.17;1.50;;;-4.30;99.90;;;;;;4996579;28;20057;-64
2022/03/30 01:42:58;;;;;;;6.33;1.93;;;-4.30;99.90;;;;;;4996640;28;20058;-64
2022/03/30 01:45:25;;;;;;;3.50;1.50;;;-4.30;99.90;;;;;;5005902;28;20141;-64
2022/03/30 01:47:59;;;;;;;6.50;2.57;;;-4.40;99.90;;;;;;5000754;28;20053;-65
2022/03/30 01:50:29;;;;;;;1.47;1.37;;;-4.40;99.90;;;;;;4999704;28;20540;-64
2022/03/30 01:52:56;;;;;;;2.60;1.92;;;-4.40;99.90;;;;;;5000779;28;20068;-63
2022/03/30 01:55:23;;;;;;;1.53;1.30;;;-4.40;99.90;;;;;;5001232;28;20132;-64
2022/03/30 01:57:50;;;;;;;2.50;1.60;;;-4.50;99.90;;;;;;4993891;28;20129;-63
2022/03/30 02:00:18;;;;;;;1.30;1.10;;;-4.50;99.90;;;;;;4993653;28;20144;-64
2022/03/30 02:02:46;;;;;;;4.63;1.47;;;-4.60;99.90;;;;;;5003383;28;20646;-64
2022/03/30 02:05:16;;;;;;;1.83;1.37;;;-4.60;99.90;;;;;;4999478;28;20053;-63
2022/03/30 02:07:43;;;;;;;3.03;2.78;;;-4.60;99.90;;;;;;5002336;28;20488;-64
2022/03/30 02:10:11;;;;;;;4.90;1.97;;;-4.70;99.90;;;;;;4998375;28;20129;-64
2022/03/30 02:12:38;;;;;;;1.93;1.70;;;-4.70;99.90;;;;;;5001698;28;20085;-63
2022/03/30 02:15:06;;;;;;;2.23;1.50;;;-4.70;99.90;;;;;;4997837;28;20069;-64
2022/03/30 02:17:33;;;;;;;2.97;1.53;;;-4.70;99.90;;;;;;5001667;28;20045;-63
2022/03/30 02:20:01;;;;;;;4.03;1.53;;;-4.70;99.90;;;;;;4994064;28;20077;-63
2022/03/30 02:22:28;;;;;;;2.47;1.80;;;-4.80;99.90;;;;;;4998892;28;20145;-63
2022/03/30 02:24:55;;;;;;;4.33;1.50;;;-4.80;99.90;;;;;;4996088;28;20046;-63
2022/03/30 02:27:22;;;;;;;4.03;1.63;;;-4.80;99.90;;;;;;5011219;28;20643;-65
2022/03/30 02:29:51;;;;;;;2.17;1.70;;;-4.90;99.90;;;;;;5001848;28;20128;-65
2022/03/30 02:32:22;;;;;;;3.67;1.20;;;-4.80;99.90;;;;;;5001465;28;20555;-63
2022/03/30 02:34:49;;;;;;;4.20;1.30;;;-4.90;99.90;;;;;;5004512;28;20555;-65
2022/03/30 02:37:17;;;;;;;4.80;1.80;;;-4.90;99.90;;;;;;5006158;28;20111;-63
2022/03/30 02:39:44;;;;;;;3.07;2.77;;;-4.90;99.90;;;;;;5000749;28;20235;-63
2022/03/30 02:42:11;;;;;;;2.97;1.63;;;-4.90;99.90;;;;;;4996044;28;20140;-66
2022/03/30 02:44:38;;;;;;;3.20;2.03;;;-5.00;99.90;;;;;;4998564;28;20058;-63
2022/03/30 02:47:06;;;;;;;2.73;1.57;;;-5.00;99.90;;;;;;5005146;28;20132;-64
2022/03/30 02:49:33;;;;;;;3.57;2.10;;;-5.00;99.90;;;;;;5011933;28;20064;-64
2022/03/30 02:52:00;;;;;;;2.37;1.57;;;-5.00;99.90;;;;;;5012419;28;20049;-64
2022/03/30 02:54:28;;;;;;;1.73;1.50;;;-5.10;99.90;;;;;;4990349;28;20078;-64
2022/03/30 02:56:55;;;;;;;2.50;2.27;;;-5.20;99.90;;;;;;4996951;28;20053;-64
2022/03/30 02:59:22;;;;;;;2.37;1.60;;;-5.20;99.90;;;;;;5007001;28;20136;-64
2022/03/30 03:01:49;;;;;;;3.93;1.83;;;-5.20;99.90;;;;;;4999019;28;20109;-63
2022/03/30 03:04:17;;;;;;;2.50;1.60;;;-5.30;99.90;;;;;;5006617;28;20199;-63
2022/03/30 03:06:43;;;;;;;5.93;2.10;;;-5.40;99.90;;;;;;5004109;28;20060;-66
2022/03/30 03:09:11;;;;;;;2.90;2.17;;;-5.40;99.90;;;;;;4993640;28;20137;-64
2022/03/30 03:11:38;;;;;;;1.97;1.57;;;-5.50;99.90;;;;;;4986600;28;20054;-64
2022/03/30 03:14:07;;;;;;;3.43;2.17;;;-5.40;99.90;;;;;;4994398;28;20131;-63
2022/03/30 03:16:34;;;;;;;4.60;1.67;;;-5.40;99.90;;;;;;4997657;28;20085;-63
2022/03/30 03:19:02;;;;;;;2.53;1.77;;;-5.40;99.90;;;;;;5002280;28;20042;-63
2022/03/30 03:21:29;;;;;;;2.73;2.03;;;-5.40;99.90;;;;;;5003030;28;20060;-64
2022/03/30 03:23:56;;;;;;;2.23;1.73;;;-5.50;99.90;;;;;;5003070;28;20092;-64
2022/03/30 03:26:23;;;;;;;3.83;1.60;;;-5.50;99.90;;;;;;4997648;28;20054;-63
2022/03/30 03:28:50;;;;;;;3.03;2.07;;;-5.60;99.90;;;;;;4997802;28;20073;-64
2022/03/30 03:31:17;;;;;;;2.63;1.73;;;-5.60;99.90;;;;;;4995408;28;20088;-64
2022/03/30 03:33:44;;;;;;;2.33;1.97;;;-5.60;99.90;;;;;;4995310;28;20158;-63
2022/03/30 03:36:12;;;;;;;7.63;2.27;;;-5.70;99.90;;;;;;4996460;28;20128;-63
2022/03/30 03:38:39;;;;;;;10.73;2.47;;;-5.70;99.90;;;;;;4999594;28;20045;-65
2022/03/30 03:41:06;;;;;;;3.63;2.03;;;-5.70;99.90;;;;;;5002226;28;20057;-63
2022/03/30 03:43:34;;;;;;;7.53;2.57;;;-5.70;99.90;;;;;;5001898;28;20066;-63
2022/03/30 03:46:02;;;;;;;5.93;3.40;;;-5.80;99.90;;;;;;5000617;28;20053;-65
2022/03/30 03:48:29;;;;;;;7.33;3.43;;;-5.80;99.90;;;;;;5001571;28;20057;-65
2022/03/30 03:50:56;;;;;;;10.23;2.87;;;-5.80;99.90;;;;;;4999978;28;20141;-63
2022/03/30 03:53:23;;;;;;;14.23;3.97;;;-5.90;99.90;;;;;;5001725;28;20051;-63
2022/03/30 03:55:50;;;;;;;5.33;3.23;;;-5.90;99.90;;;;;;5007830;28;20042;-62
2022/03/30 03:58:17;;;;;;;7.17;2.73;;;-5.90;99.90;;;;;;5003378;28;20108;-63
2022/03/30 04:00:45;;;;;;;10.40;2.93;;;-6.00;99.90;;;;;;5005127;28;20082;-66
2022/03/30 04:03:12;;;;;;;6.07;2.07;;;-6.00;99.90;;;;;;5003812;28;20548;-64
2022/03/30 04:05:40;;;;;;;9.90;2.30;;;-6.10;99.90;;;;;;5000569;28;20062;-65
2022/03/30 04:08:08;;;;;;;11.57;3.17;;;-6.20;99.90;;;;;;5000063;28;20531;-63
2022/03/30 04:10:35;;;;;;;10.03;2.13;;;-6.20;99.90;;;;;;5002989;28;20081;-62
2022/03/30 04:13:06;;;;;;;8.77;3.37;;;-6.30;99.90;;;;;;5000671;28;20046;-62
2022/03/30 04:15:37;;;;;;;7.30;3.30;;;-6.30;99.90;;;;;;5000576;28;20149;-65
2022/03/30 04:18:07;;;;;;;5.90;2.47;;;-6.30;99.90;;;;;;4989610;28;20120;-66
2022/03/30 04:20:34;;;;;;;9.20;2.70;;;-6.40;99.90;;;;;;4986045;28;20052;-66
2022/03/30 04:23:01;;;;;;;10.30;2.77;;;-6.40;99.90;;;;;;4988220;28;20454;-63
2022/03/30 04:25:28;;;;;;;6.17;2.57;;;-6.40;99.90;;;;;;4991296;28;20716;-66
2022/03/30 04:27:55;;;;;;;5.60;2.73;;;-6.40;99.90;;;;;;4984786;28;20059;-63
2022/03/30 04:30:22;;;;;;;8.67;3.60;;;-6.50;99.90;;;;;;4983069;28;20058;-63
2022/03/30 04:32:50;;;;;;;10.13;4.33;;;-6.50;99.90;;;;;;4993880;28;20846;-66
2022/03/30 04:35:26;;;;;;;3.93;3.37;;;-6.50;99.90;;;;;;4993612;28;20069;-64
2022/03/30 04:37:57;;;;;;;9.50;4.57;;;-6.50;99.90;;;;;;4986725;28;20078;-66
2022/03/30 04:40:26;;;;;;;11.93;4.30;;;-6.50;99.90;;;;;;4983647;28;20092;-64
2022/03/30 04:42:54;;;;;;;6.75;3.13;;;-6.60;99.90;;;;;;4990343;28;20037;-66
2022/03/30 04:45:22;;;;;;;9.10;3.33;;;-6.60;99.90;;;;;;4996358;28;20062;-63
2022/03/30 04:47:49;;;;;;;11.77;6.40;;;-6.60;99.90;;;;;;4999240;28;20105;-65
2022/03/30 04:50:16;;;;;;;19.80;7.10;;;-6.60;99.90;;;;;;4993939;28;20081;-63
2022/03/30 04:52:43;;;;;;;6.03;4.80;;;-6.60;99.90;;;;;;4994165;28;20049;-65
2022/03/30 04:55:11;;;;;;;21.27;6.50;;;-6.60;99.90;;;;;;4992877;28;20070;-66
2022/03/30 04:57:38;;;;;;;14.77;6.57;;;-6.60;99.90;;;;;;4988358;28;20074;-62
2022/03/30 05:00:08;;;;;;;17.73;6.60;;;-6.70;99.90;;;;;;4993497;28;20058;-63
2022/03/30 05:02:36;;;;;;;22.83;6.63;;;-6.60;99.90;;;;;;4993728;28;20050;-63
2022/03/30 05:05:11;;;;;;;24.07;6.30;;;-6.60;99.90;;;;;;4997586;28;20061;-63
2022/03/30 05:07:38;;;;;;;14.30;5.20;;;-6.60;99.90;;;;;;4993014;28;20054;-64
2022/03/30 05:10:09;;;;;;;27.40;7.63;;;-6.60;99.90;;;;;;4993358;28;20429;-63
2022/03/30 05:12:36;;;;;;;21.13;5.07;;;-6.60;99.90;;;;;;4996851;28;20432;-62
2022/03/30 05:15:06;;;;;;;24.50;6.40;;;-6.60;99.90;;;;;;4994097;28;20078;-63
2022/03/30 05:17:33;;;;;;;19.27;6.10;;;-6.60;99.90;;;;;;4995409;28;20732;-66
2022/03/30 05:20:00;;;;;;;15.90;4.53;;;-6.50;99.90;;;;;;4991116;28;20128;-63
2022/03/30 05:22:27;;;;;;;22.37;5.57;;;-6.50;99.90;;;;;;4991778;28;20054;-64
2022/03/30 05:24:54;;;;;;;36.07;7.17;;;-6.40;99.90;;;;;;4994517;28;20056;-66
2022/03/30 05:27:21;;;;;;;22.37;6.43;;;-6.40;99.90;;;;;;4997331;28;20081;-62
2022/03/30 05:29:47;;;;;;;27.30;5.10;;;-6.30;99.90;;;;;;4992201;28;20145;-64
2022/03/30 05:32:14;;;;;;;27.20;6.57;;;-6.30;99.90;;;;;;4993688;28;20054;-63
2022/03/30 05:34:42;;;;;;;18.23;5.97;;;-6.30;99.90;;;;;;4993353;28;20137;-63
2022/03/30 05:37:10;;;;;;;31.07;10.20;;;-6.20;99.90;;;;;;4992909;28;20516;-65
2022/03/30 05:39:41;;;;;;;34.07;6.90;;;-6.10;99.90;;;;;;4999772;28;20500;-64
2022/03/30 05:42:12;;;;;;;28.57;8.13;;;-6.10;99.90;;;;;;4987748;28;20156;-64
2022/03/30 05:44:39;;;;;;;38.70;7.47;;;-6.00;99.90;;;;;;4993143;28;20141;-63
2022/03/30 05:47:07;;;;;;;40.40;7.97;;;-5.80;99.90;;;;;;4996693;28;20085;-63
2022/03/30 05:49:35;;;;;;;35.03;7.13;;;-5.70;99.90;;;;;;4993235;28;20126;-67
2022/03/30 05:52:03;;;;;;;49.03;8.40;;;-5.60;99.90;;;;;;4993641;28;20741;-63
2022/03/30 05:54:33;;;;;;;35.73;7.63;;;-5.40;99.90;;;;;;4995941;28;20124;-67
2022/03/30 05:57:00;;;;;;;38.60;7.53;;;-5.20;99.90;;;;;;4991686;28;20539;-64
2022/03/30 05:59:32;;;;;;;19.60;4.33;;;-5.00;99.90;;;;;;4992521;28;20416;-63
2022/03/30 06:02:00;;;;;;;8.60;2.47;;;-4.80;99.90;;;;;;4989263;28;20601;-63
2022/03/30 06:04:27;;;;;;;3.40;1.13;;;-4.50;99.90;;;;;;4990681;28;20054;-63
2022/03/30 06:06:54;;;;;;;2.23;1.30;;;-4.20;99.90;;;;;;4989513;28;20609;-64
2022/03/30 06:09:21;;;;;;;8.93;1.57;;;-3.90;99.90;;;;;;4997593;28;20104;-63
2022/03/30 06:12:06;;;;;;;19.13;1.77;;;-3.70;99.90;;;;;;4995731;28;20061;-62
2022/03/30 06:14:33;;;;;;;4.53;1.63;;;-3.30;99.90;;;;;;4991975;28;20472;-64
2022/03/30 06:17:03;;;;;;;10.75;2.80;;;-3.10;99.90;;;;;;4993272;28;20042;-65
2022/03/30 06:19:34;;;;;;;4.93;0.93;;;-3.10;99.90;;;;;;4992156;28;20120;-63
2022/03/30 06:22:05;;;;;;;5.90;1.53;;;-3.00;99.90;;;;;;4991007;28;20129;-63
2022/03/30 06:24:38;;;;;;;11.68;2.65;;;-2.80;99.90;;;;;;4994357;28;20120;-63
2022/03/30 06:27:07;;;;;;;23.53;3.80;;;-2.60;99.90;;;;;;4998070;28;20460;-62
2022/03/30 06:29:35;;;;;;;7.20;2.38;;;-2.50;99.90;;;;;;4997989;28;20458;-66
2022/03/30 06:32:03;;;;;;;19.45;2.40;;;-2.40;99.90;;;;;;4994179;28;20038;-62
2022/03/30 06:34:30;;;;;;;7.93;2.35;;;-2.40;99.90;;;;;;4994940;28;20612;-63
2022/03/30 06:36:57;;;;;;;3.13;1.05;;;-2.40;99.90;;;;;;4998046;28;20050;-65
2022/03/30 06:39:24;;;;;;;2.90;0.90;;;-2.30;99.80;;;;;;4999687;28;20057;-62
2022/03/30 06:41:52;;;;;;;4.18;0.90;;;-2.20;99.00;;;;;;4997854;28;20140;-64
2022/03/30 06:44:19;;;;;;;1.70;0.73;;;-2.10;98.40;;;;;;4998796;28;20065;-64
2022/03/30 06:46:46;;;;;;;4.57;1.88;;;-2.00;97.50;;;;;;5000908;28;20132;-63
2022/03/30 06:49:13;;;;;;;6.90;1.30;;;-1.80;96.20;;;;;;5001457;28;20050;-63
2022/03/30 06:51:41;;;;;;;1.27;0.73;;;-1.80;94.60;;;;;;4997809;28;20081;-65
2022/03/30 06:54:07;;;;;;;7.65;1.83;;;-1.80;95.40;;;;;;5001540;28;20092;-65
2022/03/30 06:56:34;;;;;;;10.70;1.38;;;-1.70;96.50;;;;;;5003472;28;20081;-64
2022/03/30 06:59:01;;;;;;;14.85;1.98;;;-1.60;97.10;;;;;;4997370;28;20065;-66
2022/03/30 07:01:34;;;;;;;3.50;0.80;;;-1.60;96.00;;;;;;4992010;28;20676;-63
2022/03/30 07:04:02;;;;;;;7.25;2.47;;;-1.50;96.50;;;;;;5001770;28;20571;-64
2022/03/30 07:06:30;;;;;;;8.30;2.83;;;-1.50;95.40;;;;;;4999271;28;20064;-62
2022/03/30 07:11:42;;;;;;;3.40;0.70;;;-1.20;92.00;;;;;;5001471;28;20365;-63
2022/03/30 07:14:09;;;;;;;3.95;1.85;;;-1.20;93.10;;;;;;5002205;28;20056;-64
2022/03/30 07:16:36;;;;;;;1.98;1.27;;;-1.10;93.80;;;;;;4991059;28;20107;-65
2022/03/30 07:19:03;;;;;;;2.30;0.68;;;-1.10;91.90;;;;;;5003394;28;20049;-63
2022/03/30 07:21:30;;;;;;;4.63;0.90;;;-1.10;93.30;;;;;;4997485;28;20877;-64
2022/03/30 07:23:57;;;;;;;3.03;1.85;;;-1.00;93.90;;;;;;5001469;28;20050;-65
2022/03/30 07:26:24;;;;;;;2.35;0.77;;;-0.90;95.10;;;;;;5003373;28;20140;-64
2022/03/30 07:28:51;;;;;;;5.50;1.15;;;-0.90;94.60;;;;;;5001004;28;20610;-63
2022/03/30 07:31:17;;;;;;;4.65;1.00;;;-0.80;94.80;;;;;;4996687;28;20057;-64
2022/03/30 07:33:45;;;;;;;5.88;0.80;;;-0.80;92.10;;;;;;5004584;28;20592;-64
2022/03/30 07:36:12;;;;;;;1.85;0.95;;;-0.70;90.90;;;;;;5005600;28;20130;-65
2022/03/30 07:38:39;;;;;;;9.25;1.60;;;-0.70;92.70;;;;;;4998064;28;20431;-63
2022/03/30 07:41:06;;;;;;;5.03;1.00;;;-0.60;92.30;;;;;;5006323;28;20507;-63
2022/03/30 07:43:33;;;;;;;3.55;0.90;;;-0.60;91.80;;;;;;5005453;28;20050;-63
2022/03/30 07:46:00;;;;;;;4.25;1.42;;;-0.50;91.70;;;;;;5007094;28;20077;-62
2022/03/30 07:48:27;;;;;;;7.32;1.45;;;-0.50;89.60;;;;;;4997902;28;20057;-64
2022/03/30 07:50:54;;;;;;;4.25;0.65;;;-0.40;90.80;;;;;;5006769;28;20677;-64
2022/03/30 07:53:28;;;;;;;3.05;0.82;;;-0.40;89.00;;;;;;5004940;28;20419;-63
2022/03/30 07:55:56;;;;;;;2.03;0.75;;;-0.40;88.20;;;;;;5017277;28;20156;-65
2022/03/30 07:58:23;;;;;;;0.98;0.90;;;-0.40;88.10;;;;;;5003706;28;20497;-64
2022/03/30 08:00:50;;;;;;;2.08;1.20;;;-0.40;87.60;;;;;;5005631;28;20041;-63
2022/03/30 08:03:17;;;;;;;3.53;1.00;;;-0.40;83.70;;;;;;4989141;28;20079;-62
2022/03/30 08:05:44;;;;;;;18.60;2.45;;;-0.30;88.10;;;;;;5005012;28;20512;-65
2022/03/30 08:08:11;;;;;;;11.27;1.95;;;-0.20;90.50;;;;;;5003792;28;20078;-63
2022/03/30 08:10:38;;;;;;;7.80;1.30;;;-0.20;91.60;;;;;;5009036;28;20049;-62
2022/03/30 08:13:06;;;;;;;7.22;1.23;;;-0.10;90.10;;;;;;5005680;28;20052;-63
2022/03/30 08:15:36;;;;;;;10.88;1.58;;;0.00;92.60;;;;;;5006129;28;20049;-63
2022/03/30 08:18:05;;;;;;;15.02;1.42;;;0.00;92.50;;;;;;5004523;28;20066;-63
2022/03/30 08:23:18;;;;;;;8.57;2.47;;;0.10;92.80;;;;;;5006801;28;20052;-64
2022/03/30 08:25:45;;;;;;;2.15;0.85;;;0.10;89.70;;;;;;5005895;28;20407;-65
2022/03/30 08:28:12;;;;;;;7.82;0.98;;;0.10;90.20;;;;;;5002160;28;20053;-66
2022/03/30 08:30:39;;;;;;;12.52;2.75;;;0.20;91.30;;;;;;5002533;28;20132;-64
2022/03/30 08:33:06;;;;;;;3.40;1.10;;;0.20;89.10;;;;;;4994829;28;20058;-63
2022/03/30 08:35:34;;;;;;;7.20;3.25;;;0.30;84.50;;;;;;5005109;28;20050;-63
2022/03/30 08:38:01;;;;;;;1.80;0.65;;;0.30;81.70;;;;;;5004154;28;20530;-63
2022/03/30 08:40:29;;;;;;;11.52;1.40;;;0.40;84.00;;;;;;4995260;28;20141;-63
2022/03/30 08:42:55;;;;;;;6.00;0.80;;;0.40;86.30;;;;;;4990648;28;20073;-65
2022/03/30 08:45:23;;;;;;;13.32;1.40;;;0.30;82.40;;;;;;5004542;28;20488;-63
2022/03/30 08:47:50;;;;;;;0.77;0.77;;;0.30;81.80;;;;;;5003164;28;20452;-63
2022/03/30 08:50:19;;;;;;;3.72;0.82;;;0.40;80.80;;;;;;4998261;28;20702;-63
2022/03/30 08:52:49;;;;;;;2.28;0.50;;;0.50;80.70;;;;;;4998997;28;20049;-63
2022/03/30 08:55:16;;;;;;;7.32;1.15;;;0.50;83.20;;;;;;4993211;28;20639;-63
2022/03/30 08:57:43;;;;;;;3.47;1.42;;;0.40;81.80;;;;;;4998996;28;20057;-65
2022/03/30 09:00:17;;;;;;;4.38;0.98;;;0.50;84.80;;;;;;4993999;28;20133;-63
2022/03/30 09:02:46;;;;;;;6.28;1.20;;;0.50;81.80;;;;;;5001572;28;20158;-63
2022/03/30 09:05:15;;;;;;;3.00;1.10;;;0.50;83.40;;;;;;4996257;28;20073;-64
2022/03/30 09:07:48;;;;;;;2.30;0.47;;;0.60;83.10;;;;;;5004751;28;20074;-63
2022/03/30 09:10:20;;;;;;;3.20;2.15;;;0.70;85.00;;;;;;5002881;28;20136;-64
2022/03/30 09:12:51;;;;;;;5.65;1.00;;;0.70;79.20;;;;;;4995596;28;20516;-62
2022/03/30 09:15:20;;;;;;;4.53;1.10;;;0.60;82.50;;;;;;4997763;28;20037;-63
2022/03/30 09:18:01;;;;;;;9.20;3.33;;;0.60;84.80;;;;;;5001889;28;20116;-62
2022/03/30 09:20:36;;;;;;;15.90;3.78;;;0.80;85.00;;;;;;5002360;28;20049;-63
2022/03/30 09:23:04;;;;;;;2.72;0.68;;;0.80;84.00;;;;;;5003660;28;20050;-63
2022/03/30 09:25:50;;;;;;;2.30;0.73;;;0.70;85.20;;;;;;5003148;28;20120;-63
2022/03/30 09:28:20;;;;;;;4.30;0.80;;;0.80;79.80;;;;;;4998576;28;20053;-64
2022/03/30 09:30:48;;;;;;;6.22;0.90;;;0.80;82.50;;;;;;5001002;28;20042;-63
2022/03/30 09:33:19;;;;;;;1.63;0.77;;;0.80;88.50;;;;;;5004294;28;20038;-64
2022/03/30 09:35:47;;;;;;;2.97;0.90;;;0.80;87.20;;;;;;5004939;28;20050;-62
2022/03/30 09:38:17;;;;;;;4.20;0.80;;;0.80;86.80;;;;;;5001767;28;20133;-63
2022/03/30 09:41:01;;;;;;;1.67;0.40;;;0.90;82.00;;;;;;5000351;28;20054;-64
2022/03/30 09:43:40;;;;;;;1.65;0.60;;;1.00;83.90;;;;;;5001193;28;20053;-63
2022/03/30 09:46:11;;;;;;;5.57;0.73;;;1.10;85.00;;;;;;4997386;28;20050;-65
2022/03/30 09:48:49;;;;;;;6.43;0.73;;;1.10;78.60;;;;;;5002080;28;20448;-65
2022/03/30 09:51:18;;;;;;;0.63;0.50;;;1.00;79.60;;;;;;5002841;28;20057;-64
2022/03/30 09:53:46;;;;;;;11.23;0.80;;;1.10;81.30;;;;;;4994253;28;20111;-63
2022/03/30 09:56:17;;;;;;;4.93;0.68;;;1.20;78.90;;;;;;4996913;28;20054;-65
2022/03/30 09:58:45;;;;;;;5.05;0.88;;;1.20;79.20;;;;;;4991161;28;20068;-66
2022/03/30 10:01:19;;;;;;;2.38;0.50;;;1.40;79.80;;;;;;4993562;28;20168;-62
2022/03/30 10:03:51;;;;;;;1.85;0.80;;;1.50;81.10;;;;;;4993715;28;20136;-62
2022/03/30 10:06:24;;;;;;;7.22;0.80;;;1.50;80.60;;;;;;4991384;28;20719;-63
2022/03/30 10:08:52;;;;;;;0.70;0.70;;;1.50;80.50;;;;;;4993172;28;20101;-65
2022/03/30 10:11:21;;;;;;;5.25;0.93;;;1.50;80.80;;;;;;4989163;28;20141;-65
2022/03/30 10:13:50;;;;;;;2.95;1.23;;;1.50;80.60;;;;;;4992981;28;20045;-63
2022/03/30 10:16:37;;;;;;;0.65;0.63;;;1.60;80.70;;;;;;4990348;28;20195;-64
2022/03/30 10:19:08;;;;;;;3.53;0.90;;;1.60;82.50;;;;;;4992239;28;20459;-63
2022/03/30 10:21:58;;;;;;;1.50;0.70;;;1.70;80.90;;;;;;4989659;28;20050;-63
2022/03/30 10:24:43;;;;;;;1.50;0.53;;;1.70;79.40;;;;;;4991233;28;20160;-64
2022/03/30 10:27:17;;;;;;;2.42;1.17;;;1.50;80.80;;;;;;4990527;28;20108;-65
2022/03/30 10:29:52;;;;;;;1.83;0.40;;;1.40;80.90;;;;;;4993749;28;20503;-63
2022/03/30 10:32:23;;;;;;;3.92;0.47;;;1.40;79.60;;;;;;4990031;28;20038;-63
2022/03/30 10:35:05;;;;;;;1.48;0.60;;;1.40;78.20;;;;;;4991135;28;20142;-63
2022/03/30 10:37:39;;;;;;;0.95;0.77;;;1.50;76.60;;;;;;4993025;28;20453;-63
2022/03/30 10:40:18;;;;;;;7.05;0.98;;;1.50;77.10;;;;;;4989106;28;20038;-63
2022/03/30 10:42:54;;;;;;;3.10;0.47;;;1.50;75.10;;;;;;4988910;28;20107;-68
2022/03/30 10:45:40;;;;;;;1.80;0.50;;;1.60;73.50;;;;;;4997202;28;20046;-64
2022/03/30 10:48:13;;;;;;;1.20;1.17;;;1.70;75.10;;;;;;4991492;28;20100;-65
2022/03/30 10:51:19;;;;;;;1.13;0.57;;;1.90;71.70;;;;;;5009911;28;20113;-63
2022/03/30 10:53:50;;;;;;;6.68;0.70;;;1.70;72.10;;;;;;4992280;28;20135;-62
2022/03/30 10:56:22;;;;;;;3.67;0.70;;;1.70;70.60;;;;;;4991471;28;20053;-65
2022/03/30 10:58:49;;;;;;;1.85;0.40;;;1.80;72.10;;;;;;4987887;28;20724;-62
2022/03/30 11:01:25;;;;;;;1.50;0.57;;;2.00;73.90;;;;;;4997223;28;20070;-66
2022/03/30 11:04:10;;;;;;;2.28;0.45;;;2.00;73.20;;;;;;4998001;28;20060;-65
2022/03/30 11:06:40;;;;;;;2.75;0.65;;;1.90;72.40;;;;;;4992585;28;20050;-63
2022/03/30 11:09:20;;;;;;;11.53;0.77;;;1.90;71.40;;;;;;4999973;28;20164;-65
2022/03/30 11:11:55;;;;;;;2.67;0.60;;;2.10;74.90;;;;;;4989427;28;20113;-63
2022/03/30 11:14:39;;;;;;;2.45;0.50;;;2.00;70.90;;;;;;4982206;28;20046;-66
2022/03/30 11:17:08;;;;;;;2.00;0.30;;;1.80;72.70;;;;;;4990538;28;20141;-63
2022/03/30 11:19:47;;;;;;;0.40;0.40;;;2.00;72.30;;;;;;4991923;28;20053;-64
2022/03/30 11:22:28;;;;;;;2.38;0.75;;;2.20;71.90;;;;;;4990680;28;20058;-63
2022/03/30 11:25:05;;;;;;;0.63;0.40;;;2.30;72.00;;;;;;4992531;28;20062;-66
2022/03/30 11:27:32;;;;;;;1.27;0.35;;;2.30;70.90;;;;;;4995937;28;20099;-64
2022/03/30 11:30:03;;;;;;;2.10;0.40;;;2.30;71.80;;;;;;4966141;28;20062;-64
2022/03/30 11:33:06;;;;;;;1.80;0.47;;;2.20;73.90;;;;;;4983899;28;20061;-64
2022/03/30 11:35:37;;;;;;;4.63;0.43;;;2.30;73.10;;;;;;4994635;28;20077;-63
2022/03/30 11:38:21;;;;;;;0.50;0.50;;;2.20;70.60;;;;;;4999481;28;20057;-64
2022/03/30 11:40:50;;;;;;;4.90;1.40;;;2.20;73.30;;;;;;4998846;28;20058;-62
2022/03/30 11:43:19;;;;;;;4.85;0.95;;;2.20;72.70;;;;;;4992103;28;20041;-63
2022/03/30 11:46:03;;;;;;;2.88;0.85;;;2.30;72.40;;;;;;5000812;28;20093;-64
2022/03/30 11:48:39;;;;;;;8.20;1.20;;;2.20;69.60;;;;;;4990428;28;20127;-64
2022/03/30 11:51:15;;;;;;;4.38;0.60;;;2.30;70.50;;;;;;4992601;28;20046;-64
2022/03/30 11:53:42;;;;;;;9.20;1.20;;;2.30;70.10;;;;;;5001945;28;20149;-64
2022/03/30 11:56:10;;;;;;;0.90;0.60;;;2.40;69.90;;;;;;5002367;28;20119;-63
2022/03/30 11:58:44;;;;;;;4.28;0.45;;;2.40;72.20;;;;;;5000018;28;20785;-62
2022/03/30 12:01:13;;;;;;;2.15;0.63;;;2.50;68.70;;;;;;5000944;28;20197;-64
2022/03/30 12:03:41;;;;;;;1.00;0.38;;;2.30;67.90;;;;;;4997163;28;20208;-65
2022/03/30 12:06:10;;;;;;;1.70;0.80;;;2.30;69.50;;;;;;4999006;28;20059;-65
2022/03/30 12:08:48;;;;;;;2.05;0.63;;;2.30;69.30;;;;;;4998268;28;20119;-63
2022/03/30 12:11:19;;;;;;;1.88;0.95;;;2.40;69.50;;;;;;5003788;28;20081;-63
2022/03/30 12:13:56;;;;;;;0.93;0.40;;;2.40;69.80;;;;;;5004108;28;20074;-63
2022/03/30 12:16:26;;;;;;;1.45;0.65;;;2.50;69.20;;;;;;5002524;28;20108;-64
2022/03/30 12:18:55;;;;;;;;;;;2.50;70.10;;;;;;4999147;28;20052;-62
2022/03/30 12:21:24;;;;;;;4.13;0.73;;;2.60;68.60;;;;;;5005011;28;20292;-63
2022/03/30 12:23:58;;;;;;;3.92;0.57;;;2.30;68.20;;;;;;5001066;28;20060;-65
2022/03/30 12:26:50;;;;;;;2.25;0.45;;;2.30;70.50;;;;;;4998170;28;20050;-62
2022/03/30 12:29:17;;;;;;;2.40;0.60;;;2.50;72.20;;;;;;5005153;28;20467;-64
2022/03/30 12:31:53;;;;;;;1.50;0.75;;;2.60;68.70;;;;;;5005226;28;20155;-64
2022/03/30 12:34:23;;;;;;;0.43;0.43;;;2.60;67.30;;;;;;4992695;28;20722;-66
2022/03/30 12:36:58;;;;;;;3.10;0.40;;;2.50;69.70;;;;;;4992983;28;20104;-63
2022/03/30 12:39:33;;;;;;;1.33;0.28;;;2.60;70.70;;;;;;5005187;28;20726;-63
2022/03/30 12:42:06;;;;;;;5.55;2.15;;;2.70;68.30;;;;;;5002927;28;20547;-64
2022/03/30 12:44:35;;;;;;;1.45;1.05;;;2.80;68.30;;;;;;5003296;28;20061;-64
2022/03/30 12:47:03;;;;;;;0.80;0.52;;;2.70;68.70;;;;;;5002954;28;20051;-65
2022/03/30 12:49:39;;;;;;;2.75;0.47;;;2.70;69.20;;;;;;5005139;28;20519;-63
2022/03/30 12:52:07;;;;;;;0.57;0.28;;;2.70;70.50;;;;;;5003051;28;20068;-64
2022/03/30 12:54:35;;;;;;;1.55;0.77;;;2.70;70.30;;;;;;5004752;28;20135;-64
2022/03/30 12:57:02;;;;;;;1.85;0.50;;;2.80;71.70;;;;;;4994645;28;20144;-63
2022/03/30 12:59:29;;;;;;;4.68;2.22;;;2.90;69.80;;;;;;4996840;28;20145;-64
2022/03/30 13:01:56;;;;;;;2.92;0.57;;;2.80;69.10;;;;;;4998780;28;20057;-64
2022/03/30 13:04:30;;;;;;;3.28;0.55;;;2.80;69.40;;;;;;4997644;28;20051;-62
2022/03/30 13:07:11;;;;;;;0.30;0.30;;;3.00;68.50;;;;;;5003180;28;20672;-66
2022/03/30 13:09:59;;;;;;;2.63;1.00;;;3.00;69.30;;;;;;4998456;28;20141;-63
2022/03/30 13:12:43;;;;;;;2.25;0.75;;;3.00;67.70;;;;;;4995379;28;20050;-65